createdAt,value
2022-08-22T00:05:00.677Z,99.90
2022-08-22T00:08:40.276Z,99.90
2022-08-22T00:11:39.300Z,99.90
2022-08-22T00:14:37.112Z,99.90
2022-08-22T00:17:47.037Z,99.90
2022-08-22T00:20:51.107Z,99.90
2022-08-22T00:24:01.767Z,99.90
2022-08-22T00:26:55.696Z,99.90
2022-08-22T00:32:35.306Z,99.90
2022-08-22T00:35:26.672Z,99.90
2022-08-22T00:38:33.829Z,99.90
2022-08-22T00:41:34.840Z,99.90
2022-08-22T00:44:41.978Z,99.90
2022-08-22T00:51:04.231Z,99.90
2022-08-22T00:54:19.498Z,99.90
2022-08-22T00:57:24.617Z,99.90
2022-08-22T01:00:26.494Z,99.90
2022-08-22T01:03:37.656Z,99.90
2022-08-22T01:06:52.745Z,99.90
2022-08-22T01:09:50.320Z,99.90
2022-08-22T01:13:15.093Z,99.90
2022-08-22T01:16:35.010Z,99.90
2022-08-22T01:19:29.798Z,99.90
2022-08-22T01:22:39.865Z,99.90
2022-08-22T01:25:42.164Z,99.90
2022-08-22T01:28:40.220Z,99.90
2022-08-22T01:32:00.065Z,99.90
2022-08-22T01:35:00.348Z,99.90
2022-08-22T01:38:19.120Z,99.90
2022-08-22T01:44:01.232Z,99.90
2022-08-22T01:47:14.140Z,99.90
2022-08-22T01:50:20.829Z,99.90
2022-08-22T01:53:12.716Z,99.90
2022-08-22T01:56:13.383Z,99.90
2022-08-22T01:59:11.068Z,99.90
2022-08-22T02:04:53.169Z,99.90
2022-08-22T02:08:03.522Z,99.90
2022-08-22T02:11:06.135Z,99.90
2022-08-22T02:13:59.177Z,99.90
2022-08-22T02:16:52.531Z,99.90
2022-08-22T02:19:56.422Z,99.90
2022-08-22T02:22:57.772Z,99.90
2022-08-22T02:25:53.315Z,99.90
2022-08-22T02:29:06.675Z,99.90
2022-08-22T02:32:08.462Z,99.90
2022-08-22T02:35:17.052Z,99.90
2022-08-22T02:38:25.294Z,99.90
2022-08-22T02:41:44.017Z,99.90
2022-08-22T02:44:47.734Z,99.90
2022-08-22T02:47:47.741Z,99.90
2022-08-22T02:50:54.898Z,99.90
2022-08-22T02:56:44.442Z,99.90
2022-08-22T02:59:34.778Z,99.90
2022-08-22T03:02:38.780Z,99.90
2022-08-22T03:05:36.906Z,99.90
2022-08-22T03:08:31.207Z,99.90
2022-08-22T03:11:28.158Z,99.90
2022-08-22T03:14:22.534Z,99.90
2022-08-22T03:17:19.009Z,99.90
2022-08-22T03:20:15.633Z,99.90
2022-08-22T03:23:09.786Z,99.90
2022-08-22T03:26:07.835Z,99.90
2022-08-22T03:29:00.372Z,99.90
2022-08-22T03:32:21.261Z,99.90
2022-08-22T03:35:21.414Z,99.90
2022-08-22T03:38:44.676Z,99.90
2022-08-22T03:41:50.009Z,99.90
2022-08-22T03:44:41.833Z,99.90
2022-08-22T03:47:45.696Z,99.90
2022-08-22T03:50:49.345Z,99.90
2022-08-22T03:54:05.615Z,99.90
2022-08-22T03:57:00.660Z,99.90
2022-08-22T03:59:49.238Z,99.90
2022-08-22T04:03:11.889Z,99.90
2022-08-22T04:06:30.782Z,99.90
2022-08-22T04:09:50.204Z,99.90
2022-08-22T04:13:03.998Z,99.90
2022-08-22T04:16:19.481Z,99.90
2022-08-22T04:22:02.484Z,99.90
2022-08-22T04:28:08.917Z,99.90
2022-08-22T04:31:17.598Z,99.90
2022-08-22T04:34:32.027Z,99.90
2022-08-22T04:37:29.072Z,99.90
2022-08-22T04:40:39.897Z,99.90
2022-08-22T04:43:51.431Z,99.90
2022-08-22T04:46:45.599Z,99.90
2022-08-22T04:49:38.749Z,99.90
2022-08-22T04:52:57.578Z,99.90
2022-08-22T04:56:15.301Z,99.90
2022-08-22T04:59:07.584Z,99.90
2022-08-22T05:01:55.986Z,99.90
2022-08-22T05:04:46.811Z,99.90
2022-08-22T05:07:57.937Z,99.90
2022-08-22T05:10:46.848Z,99.90
2022-08-22T05:13:47.175Z,99.90
2022-08-22T05:16:37.884Z,99.90
2022-08-22T05:19:32.235Z,99.90
2022-08-22T05:22:27.916Z,99.90
2022-08-22T05:25:18.775Z,99.90
2022-08-22T05:28:13.661Z,99.90
2022-08-22T05:31:04.420Z,99.90
2022-08-22T05:33:54.425Z,99.90
2022-08-22T05:37:18.973Z,99.90
2022-08-22T05:45:39.411Z,99.90
2022-08-22T05:48:40.335Z,99.90
2022-08-22T05:51:59.859Z,99.90
2022-08-22T05:55:32.086Z,99.90
2022-08-22T05:58:38.539Z,99.90
2022-08-22T06:01:58.341Z,99.90
2022-08-22T06:04:58.674Z,99.90
2022-08-22T06:07:48.686Z,99.90
2022-08-22T06:10:48.275Z,99.90
2022-08-22T06:13:41.824Z,99.90
2022-08-22T06:16:35.301Z,99.90
2022-08-22T06:22:08.938Z,99.90
2022-08-22T06:25:11.359Z,99.90
2022-08-22T06:28:01.575Z,99.90
2022-08-22T06:30:48.705Z,99.90
2022-08-22T06:33:38.477Z,99.90
2022-08-22T06:36:32.330Z,99.90
2022-08-22T06:39:24.181Z,99.90
2022-08-22T06:45:16.925Z,99.90
2022-08-22T06:48:06.087Z,99.90
2022-08-22T06:50:56.225Z,99.90
2022-08-22T06:53:51.634Z,99.90
2022-08-22T06:56:43.796Z,99.90
2022-08-22T06:59:31.593Z,99.90
2022-08-22T07:02:36.059Z,99.90
2022-08-22T07:05:26.083Z,99.90
2022-08-22T07:08:19.691Z,99.90
2022-08-22T07:11:24.636Z,99.90
2022-08-22T07:14:16.311Z,99.90
2022-08-22T07:17:07.491Z,99.90
2022-08-22T07:20:23.695Z,99.90
2022-08-22T07:23:12.747Z,99.90
2022-08-22T07:26:25.255Z,99.90
2022-08-22T07:29:44.219Z,99.90
2022-08-22T07:32:47.604Z,99.90
2022-08-22T07:36:00.781Z,99.90
2022-08-22T07:39:41.783Z,99.90
2022-08-22T07:42:42.633Z,99.90
2022-08-22T07:45:35.825Z,99.90
2022-08-22T07:48:48.634Z,99.90
2022-08-22T07:51:52.945Z,99.90
2022-08-22T07:54:51.878Z,99.90
2022-08-22T07:57:44.591Z,99.90
2022-08-22T08:00:31.512Z,99.90
2022-08-22T08:03:20.846Z,99.90
2022-08-22T08:06:06.771Z,99.90
2022-08-22T08:08:54.029Z,99.90
2022-08-22T08:11:43.629Z,99.90
2022-08-22T08:14:30.887Z,99.90
2022-08-22T08:17:23.645Z,99.90
2022-08-22T08:20:12.810Z,99.90
2022-08-22T08:22:59.543Z,99.90
2022-08-22T08:26:11.500Z,99.90
2022-08-22T08:28:58.474Z,99.90
2022-08-22T08:31:45.049Z,99.90
2022-08-22T08:34:35.408Z,99.90
2022-08-22T08:37:27.570Z,99.90
2022-08-22T08:40:31.369Z,99.90
2022-08-22T08:43:34.826Z,99.90
2022-08-22T08:46:55.495Z,99.90
2022-08-22T08:49:42.115Z,99.90
2022-08-22T08:52:52.569Z,99.90
2022-08-22T08:56:06.173Z,99.90
2022-08-22T08:59:18.807Z,99.90
2022-08-22T09:02:23.701Z,99.90
2022-08-22T09:05:36.264Z,99.90
2022-08-22T09:08:55.942Z,99.90
2022-08-22T09:12:07.678Z,99.90
2022-08-22T09:15:11.962Z,99.90
2022-08-22T09:18:08.820Z,99.90
2022-08-22T09:21:31.317Z,99.90
2022-08-22T09:24:52.359Z,99.90
2022-08-22T09:27:42.653Z,99.90
2022-08-22T09:30:54.207Z,99.90
2022-08-22T09:33:50.155Z,99.90
2022-08-22T09:40:15.705Z,99.90
2022-08-22T09:40:39.952Z,99.90
2022-08-22T09:43:39.609Z,99.90
2022-08-22T09:46:52.290Z,99.90
2022-08-22T09:50:12.405Z,99.90
2022-08-22T09:53:12.044Z,99.90
2022-08-22T09:56:11.554Z,99.90
2022-08-22T09:59:26.379Z,99.90
2022-08-22T10:02:43.868Z,99.90
2022-08-22T10:05:44.889Z,99.90
2022-08-22T10:08:45.902Z,99.90
2022-08-22T10:11:50.188Z,99.90
2022-08-22T10:15:04.308Z,99.90
2022-08-22T10:18:31.068Z,99.90
2022-08-22T10:21:32.352Z,99.90
2022-08-22T10:24:58.657Z,99.90
2022-08-22T10:28:10.524Z,99.90
2022-08-22T10:30:56.176Z,99.90
2022-08-22T10:34:07.976Z,99.90
2022-08-22T10:37:08.598Z,99.90
2022-08-22T10:40:27.977Z,99.90
2022-08-22T10:43:56.357Z,99.90
2022-08-22T10:47:20.948Z,99.90
2022-08-22T10:50:20.083Z,99.90
2022-08-22T10:53:35.420Z,99.90
2022-08-22T10:56:43.734Z,99.90
2022-08-22T10:59:46.423Z,99.90
2022-08-22T11:02:53.306Z,99.90
2022-08-22T11:05:40.509Z,99.60
2022-08-22T11:08:47.409Z,99.10
2022-08-22T11:11:44.077Z,98.60
2022-08-22T11:14:50.844Z,99.00
2022-08-22T11:18:14.662Z,98.80
2022-08-22T11:21:07.300Z,98.60
2022-08-22T11:24:17.244Z,97.60
2022-08-22T11:27:43.708Z,97.40
2022-08-22T11:30:31.806Z,97.70
2022-08-22T11:33:46.379Z,97.70
2022-08-22T11:36:41.472Z,97.60
2022-08-22T11:39:43.422Z,99.10
2022-08-22T11:43:01.021Z,96.50
2022-08-22T11:45:53.315Z,97.60
2022-08-22T11:49:06.300Z,96.50
2022-08-22T11:52:09.715Z,95.10
2022-08-22T11:55:12.034Z,95.00
2022-08-22T11:58:21.962Z,95.50
2022-08-22T12:01:23.370Z,95.60
2022-08-22T12:04:15.707Z,95.10
2022-08-22T12:07:18.384Z,94.50
2022-08-22T12:10:19.345Z,94.60
2022-08-22T12:13:34.828Z,94.30
2022-08-22T12:16:48.050Z,94.40
2022-08-22T12:19:42.021Z,93.40
2022-08-22T12:22:50.085Z,93.60
2022-08-22T12:25:44.547Z,93.40
2022-08-22T12:28:46.350Z,93.80
2022-08-22T12:31:37.581Z,92.80
2022-08-22T12:34:43.085Z,92.00
2022-08-22T12:37:56.902Z,92.70
2022-08-22T12:41:12.014Z,92.00
2022-08-22T12:44:20.401Z,90.90
2022-08-22T12:47:34.436Z,91.30
2022-08-22T12:50:43.690Z,91.20
2022-08-22T12:53:57.973Z,91.30
2022-08-22T12:57:03.346Z,91.50
2022-08-22T13:00:06.741Z,91.70
2022-08-22T13:02:54.729Z,91.60
2022-08-22T13:05:46.244Z,91.60
2022-08-22T13:08:45.556Z,90.90
2022-08-22T13:11:37.406Z,91.20
2022-08-22T13:14:27.543Z,91.80
2022-08-22T13:17:24.349Z,90.50
2022-08-22T13:20:26.716Z,91.40
2022-08-22T13:23:14.606Z,90.50
2022-08-22T13:26:32.091Z,90.30
2022-08-22T13:29:27.322Z,90.50
2022-08-22T13:32:40.254Z,91.10
2022-08-22T13:35:52.035Z,91.20
2022-08-22T13:38:57.765Z,91.60
2022-08-22T13:41:51.403Z,91.10
2022-08-22T13:44:48.568Z,90.20
2022-08-22T13:47:46.153Z,91.40
2022-08-22T13:50:53.570Z,90.40
2022-08-22T13:54:00.449Z,91.10
2022-08-22T13:57:10.970Z,90.50
2022-08-22T14:00:05.769Z,90.10
2022-08-22T14:03:05.693Z,88.60
2022-08-22T14:05:59.016Z,89.70
2022-08-22T14:09:38.609Z,87.90
2022-08-22T14:12:50.575Z,87.40
2022-08-22T14:15:44.795Z,88.30
2022-08-22T14:18:36.480Z,86.20
2022-08-22T14:21:46.000Z,87.50
2022-08-22T14:24:45.544Z,85.50
2022-08-22T14:27:53.912Z,85.00
2022-08-22T14:31:13.247Z,84.70
2022-08-22T14:34:07.712Z,78.30
2022-08-22T14:37:12.977Z,76.50
2022-08-22T14:40:12.141Z,73.50
2022-08-22T14:43:08.960Z,72.40
2022-08-22T14:46:02.216Z,69.60
2022-08-22T14:49:03.211Z,70.60
2022-08-22T14:51:54.749Z,65.90
2022-08-22T14:54:40.388Z,66.60
2022-08-22T14:57:28.541Z,64.30
2022-08-22T15:00:24.494Z,63.10
2022-08-22T15:03:20.319Z,63.90
2022-08-22T15:06:13.266Z,62.90
2022-08-22T15:09:00.449Z,63.20
2022-08-22T15:11:53.782Z,63.10
2022-08-22T15:14:52.174Z,61.90
2022-08-22T15:17:51.143Z,62.40
2022-08-22T15:20:49.159Z,60.70
2022-08-22T15:23:44.989Z,60.00
2022-08-22T15:26:38.113Z,60.10
2022-08-22T15:29:29.039Z,62.90
2022-08-22T15:32:20.957Z,62.70
2022-08-22T15:35:17.819Z,62.00
2022-08-22T15:38:08.156Z,60.60
2022-08-22T15:41:36.507Z,60.00
2022-08-22T15:44:30.863Z,58.80
2022-08-22T15:47:39.316Z,59.00
2022-08-22T15:50:39.061Z,59.50
2022-08-22T15:53:44.847Z,58.90
2022-08-22T15:56:35.267Z,59.10
2022-08-22T15:59:26.612Z,58.60
2022-08-22T16:02:39.857Z,57.50
2022-08-22T16:05:42.728Z,57.80
2022-08-22T16:08:48.725Z,59.40
2022-08-22T16:11:38.843Z,61.10
2022-08-22T16:14:46.385Z,60.50
2022-08-22T16:17:31.681Z,62.10
2022-08-22T16:20:19.909Z,63.90
2022-08-22T16:23:07.531Z,65.00
2022-08-22T16:25:53.279Z,66.10
2022-08-22T16:28:58.878Z,65.00
2022-08-22T16:31:44.785Z,63.70
2022-08-22T16:34:36.513Z,64.00
2022-08-22T16:37:25.311Z,65.00
2022-08-22T16:40:24.373Z,66.00
2022-08-22T16:43:19.359Z,65.90
2022-08-22T16:46:36.576Z,66.00
2022-08-22T16:49:30.150Z,66.00
2022-08-22T16:52:24.497Z,66.30
2022-08-22T16:55:29.256Z,66.70
2022-08-22T16:58:15.006Z,67.90
2022-08-22T17:01:17.263Z,67.50
2022-08-22T17:04:30.565Z,68.30
2022-08-22T17:07:35.794Z,68.40
2022-08-22T17:10:48.042Z,68.40
2022-08-22T17:16:41.156Z,68.90
2022-08-22T17:20:06.632Z,71.10
2022-08-22T17:23:08.175Z,70.90
2022-08-22T17:26:11.112Z,71.20
2022-08-22T17:29:26.964Z,70.90
2022-08-22T17:32:32.485Z,71.50
2022-08-22T17:35:34.681Z,71.70
2022-08-22T17:38:40.856Z,71.90
2022-08-22T17:41:36.740Z,72.90
2022-08-22T17:47:16.956Z,72.70
2022-08-22T17:50:10.894Z,73.30
2022-08-22T17:53:11.727Z,73.30
2022-08-22T17:56:17.062Z,74.70
2022-08-22T17:59:09.708Z,73.80
2022-08-22T18:02:01.330Z,73.50
2022-08-22T18:05:02.896Z,73.40
2022-08-22T18:11:45.144Z,74.70
2022-08-22T18:14:53.823Z,73.20
2022-08-22T18:17:56.870Z,74.00
2022-08-22T18:21:14.958Z,73.30
2022-08-22T18:24:31.277Z,74.00
2022-08-22T18:27:34.138Z,75.00
2022-08-22T18:30:24.615Z,74.50
2022-08-22T18:33:37.797Z,75.10
2022-08-22T18:36:30.919Z,75.10
2022-08-22T18:39:29.114Z,74.60
2022-08-22T18:42:26.519Z,75.20
2022-08-22T18:45:44.713Z,74.80
2022-08-22T18:48:59.442Z,76.20
2022-08-22T18:52:07.225Z,77.20
2022-08-22T18:55:11.603Z,75.40
2022-08-22T18:58:32.503Z,75.30
2022-08-22T19:01:42.084Z,75.80
2022-08-22T19:04:40.239Z,76.40
2022-08-22T19:07:51.164Z,77.00
2022-08-22T19:10:55.851Z,78.50
2022-08-22T19:14:00.590Z,77.90
2022-08-22T19:17:33.721Z,77.70
2022-08-22T19:20:45.557Z,78.00
2022-08-22T19:23:43.521Z,78.30
2022-08-22T19:26:38.019Z,78.80
2022-08-22T19:29:24.368Z,78.40
2022-08-22T19:32:31.829Z,79.20
2022-08-22T19:35:19.774Z,80.10
2022-08-22T19:38:07.110Z,79.20
2022-08-22T19:40:56.141Z,80.00
2022-08-22T19:43:44.234Z,80.50
2022-08-22T19:46:40.090Z,78.70
2022-08-22T19:49:31.329Z,79.30
2022-08-22T19:55:22.356Z,79.40
2022-08-22T19:58:33.045Z,79.90
2022-08-22T20:01:56.458Z,81.00
2022-08-22T20:05:22.153Z,82.10
2022-08-22T20:08:32.453Z,82.40
2022-08-22T20:11:37.789Z,81.20
2022-08-22T20:14:30.374Z,82.00
2022-08-22T20:17:25.929Z,82.60
2022-08-22T20:20:35.411Z,82.70
2022-08-22T20:23:30.311Z,83.20
2022-08-22T20:26:16.133Z,83.00
2022-08-22T20:29:04.992Z,84.20
2022-08-22T20:34:46.594Z,84.60
2022-08-22T20:38:05.228Z,85.30
2022-08-22T20:41:01.854Z,85.80
2022-08-22T20:43:54.674Z,86.40
2022-08-22T20:46:46.275Z,86.90
2022-08-22T20:49:47.360Z,87.30
2022-08-22T20:52:38.273Z,87.50
2022-08-22T20:55:27.252Z,87.90
2022-08-22T20:58:27.372Z,88.20
2022-08-22T21:01:15.339Z,88.30
2022-08-22T21:04:04.135Z,88.70
2022-08-22T21:07:00.031Z,88.80
2022-08-22T21:10:20.162Z,89.50
2022-08-22T21:13:22.538Z,89.80
2022-08-22T21:16:13.272Z,90.00
2022-08-22T21:19:01.662Z,90.20
2022-08-22T21:24:33.835Z,90.50
2022-08-22T21:27:26.520Z,90.70
2022-08-22T21:30:22.841Z,90.70
2022-08-22T21:33:08.438Z,90.90
2022-08-22T21:36:00.436Z,91.00
2022-08-22T21:38:50.365Z,91.20
2022-08-22T21:41:42.314Z,91.40
2022-08-22T21:44:30.992Z,91.50
2022-08-22T21:47:31.634Z,91.50
2022-08-22T21:50:23.508Z,91.60
2022-08-22T21:53:24.732Z,91.70
2022-08-22T21:56:13.155Z,91.90
2022-08-22T21:59:24.929Z,91.90
2022-08-22T22:02:29.178Z,92.10
2022-08-22T22:05:17.931Z,92.20
2022-08-22T22:10:51.041Z,92.50
2022-08-22T22:16:26.379Z,92.80
2022-08-22T22:21:57.576Z,93.30
2022-08-22T22:30:18.606Z,93.60
2022-08-22T22:35:54.250Z,93.90
2022-08-22T22:38:40.948Z,94.10
2022-08-22T22:44:12.428Z,94.30
2022-08-22T22:46:59.749Z,94.30
2022-08-22T22:49:46.123Z,94.50
2022-08-22T22:55:24.929Z,94.90
2022-08-22T23:01:12.909Z,95.10
2022-08-22T23:04:05.445Z,95.30
2022-08-22T23:09:38.543Z,95.50
2022-08-22T23:26:20.502Z,96.30
2022-08-22T23:31:58.323Z,96.60
2022-08-22T23:34:46.426Z,96.30
2022-08-22T23:40:18.275Z,96.90
2022-08-22T23:51:23.325Z,96.80
2022-08-22T23:54:09.418Z,97.40
2022-08-22T23:56:58.048Z,97.40
2022-08-22T23:59:46.292Z,97.70
